Time;durP1;ratioP1;P1;durP2;ratioP2;P2;SDS_P1;SDS_P2;PMS_P1;PMS_P2;Temp;Humidity;BMP_temperature;BMP_pressure;BME280_temperature;BME280_humidity;BME280_pressure;Samples;Min_cycle;Max_cycle;Signal;HPM_P1;HPM_P2
2023/01/09 00:02:26;;;;;;;32.93;31.10;;;;;;;4.46;100.00;99498.19;5024837;28;20540;-48
2023/01/09 00:04:53;;;;;;;30.83;29.10;;;;;;;4.45;100.00;99488.63;5025414;28;20485;-46
2023/01/09 00:07:21;;;;;;;31.70;29.80;;;;;;;4.43;100.00;99492.44;5026014;28;20439;-46
2023/01/09 00:09:49;;;;;;;31.97;30.17;;;;;;;4.44;100.00;99486.19;5025429;28;20453;-50
2023/01/09 00:12:18;;;;;;;30.87;29.27;;;;;;;4.41;100.00;99483.91;5025790;28;20461;-48
2023/01/09 00:14:46;;;;;;;31.53;29.43;;;;;;;4.41;100.00;99483.91;5026391;28;20451;-48
2023/01/09 00:17:15;;;;;;;31.73;30.03;;;;;;;4.39;100.00;99478.00;5026030;28;20433;-48
2023/01/09 00:19:42;;;;;;;33.60;31.53;;;;;;;4.38;100.00;99473.72;5025917;28;20468;-46
2023/01/09 00:22:10;;;;;;;31.50;29.80;;;;;;;4.37;100.00;99480.81;5025647;28;20470;-46
2023/01/09 00:24:37;;;;;;;33.47;31.47;;;;;;;4.38;100.00;99463.16;5025969;28;20902;-48
2023/01/09 00:27:05;;;;;;;32.60;30.30;;;;;;;4.37;100.00;99451.78;5025826;28;20441;-44
2023/01/09 00:29:33;;;;;;;32.73;31.03;;;;;;;4.36;100.00;99444.88;5025507;28;20453;-48
2023/01/09 00:32:01;;;;;;;33.43;31.60;;;;;;;4.36;100.00;99442.22;5026024;28;20461;-48
2023/01/09 00:34:30;;;;;;;32.80;31.00;;;;;;;4.33;100.00;99445.25;5025200;28;20429;-46
2023/01/09 00:36:57;;;;;;;33.13;31.33;;;;;;;4.35;100.00;99452.97;5023158;28;20529;-44
2023/01/09 00:39:25;;;;;;;32.90;31.10;;;;;;;4.33;100.00;99444.44;5017276;28;20461;-49
2023/01/09 00:41:57;;;;;;;33.40;31.60;;;;;;;4.33;100.00;99452.38;5024285;28;20800;-50
2023/01/09 00:44:29;;;;;;;34.33;32.43;;;;;;;4.30;100.00;99464.09;5025268;28;20473;-49
2023/01/09 00:47:00;;;;;;;34.10;31.90;;;;;;;4.31;100.00;99457.81;5024485;28;20487;-47
2023/01/09 00:49:34;;;;;;;31.10;29.30;;;;;;;4.29;100.00;99459.00;5024585;28;20463;-48
2023/01/09 00:52:03;;;;;;;32.37;30.47;;;;;;;4.29;100.00;99465.13;5024412;28;20469;-50
2023/01/09 00:54:31;;;;;;;33.23;31.13;;;;;;;4.28;100.00;99449.44;5024713;28;20429;-50
2023/01/09 00:56:59;;;;;;;33.70;31.60;;;;;;;4.28;100.00;99442.34;5024858;28;20443;-46
2023/01/09 00:59:27;;;;;;;33.30;31.40;;;;;;;4.27;100.00;99446.00;5025297;28;20449;-46
2023/01/09 01:01:55;;;;;;;33.77;31.70;;;;;;;4.26;100.00;99439.09;5023936;28;20513;-49
2023/01/09 01:09:55;;;;;;;33.70;31.70;;;;;;;4.24;100.00;99411.28;5024752;28;20461;-48
2023/01/09 01:12:23;;;;;;;33.87;32.07;;;;;;;4.22;100.00;99406.16;5024617;28;20472;-45
2023/01/09 01:14:52;;;;;;;34.63;32.40;;;;;;;4.20;100.00;99408.19;5024618;28;20422;-48
2023/01/09 01:17:19;;;;;;;35.60;33.40;;;;;;;4.20;100.00;99415.28;5024806;28;20433;-44
2023/01/09 01:19:47;;;;;;;35.17;33.13;;;;;;;4.19;100.00;99406.53;5024533;28;20455;-46
2023/01/09 01:22:16;;;;;;;34.67;32.57;;;;;;;4.17;100.00;99405.91;5023786;28;20469;-46
2023/01/09 01:24:45;;;;;;;34.73;32.57;;;;;;;4.17;100.00;99407.75;5024559;28;20484;-46
2023/01/09 01:27:12;;;;;;;34.27;32.27;;;;;;;4.16;100.00;99416.66;5023677;28;20437;-49
2023/01/09 01:29:40;;;;;;;34.83;32.80;;;;;;;4.14;100.00;99406.28;5024423;28;20460;-49
2023/01/09 01:32:08;;;;;;;34.83;32.60;;;;;;;4.13;100.00;99409.09;5023881;28;20894;-47
2023/01/09 01:34:35;;;;;;;35.17;32.53;;;;;;;4.13;100.00;99409.09;5024522;28;20429;-48
2023/01/09 01:37:03;;;;;;;33.70;31.70;;;;;;;4.11;100.00;99416.41;5022372;28;20437;-47
2023/01/09 01:39:32;;;;;;;35.10;33.00;;;;;;;4.11;100.00;99411.13;5010549;28;21078;-48
2023/01/09 01:42:00;;;;;;;33.77;31.70;;;;;;;4.10;100.00;99407.66;5004614;28;20848;-46
2023/01/09 01:44:57;;;;;;;35.30;32.80;;;;;;;4.11;100.00;99417.22;5004089;28;20470;-46
2023/01/09 01:47:30;;;;;;;35.40;33.00;;;;;;;4.11;100.00;99405.84;5004472;28;20935;-48
2023/01/09 01:50:00;;;;;;;34.20;32.00;;;;;;;4.11;100.00;99408.50;5004604;28;20450;-45
2023/01/09 01:52:30;;;;;;;34.83;32.70;;;;;;;4.11;100.00;99404.03;5003582;28;20836;-44
2023/01/09 01:54:59;;;;;;;35.53;33.30;;;;;;;4.13;100.00;99409.94;5003814;28;20646;-46
2023/01/09 01:57:27;;;;;;;35.77;33.37;;;;;;;4.14;100.00;99402.84;5004380;28;20438;-48
2023/01/09 01:59:58;;;;;;;33.50;31.50;;;;;;;4.17;100.00;99402.47;5004292;28;20454;-46
2023/01/09 02:02:30;;;;;;;33.77;31.50;;;;;;;4.23;100.00;99399.06;5003911;28;20513;-46
2023/01/09 02:05:01;;;;;;;34.30;32.10;;;;;;;4.28;100.00;99392.22;5003709;28;20537;-46
2023/01/09 02:07:29;;;;;;;32.93;30.93;;;;;;;4.37;100.00;99395.53;5003471;28;20427;-50
2023/01/09 02:09:59;;;;;;;33.27;31.30;;;;;;;4.45;100.00;99400.69;5004075;28;20457;-48
2023/01/09 02:12:28;;;;;;;33.40;31.30;;;;;;;4.53;100.00;99392.66;5002953;28;20442;-50
2023/01/09 02:14:59;;;;;;;32.37;30.60;;;;;;;4.62;100.00;99395.97;5004440;28;20426;-53
2023/01/09 02:17:54;;;;;;;34.53;32.33;;;;;;;4.70;100.00;99401.91;5003683;28;20524;-48
2023/01/09 02:20:36;;;;;;;32.80;30.87;;;;;;;4.79;100.00;99403.41;5002857;28;20462;-46
2023/01/09 02:23:26;;;;;;;33.73;31.73;;;;;;;4.87;100.00;99395.34;5003349;28;20465;-46
2023/01/09 02:26:31;;;;;;;33.03;30.87;;;;;;;4.94;100.00;99382.19;5011975;28;21093;-46
2023/01/09 02:29:26;;;;;;;33.30;31.50;;;;;;;5.00;100.00;99381.41;4984390;28;20458;-46
2023/01/09 02:32:03;;;;;;;33.80;31.90;;;;;;;5.05;100.00;99380.84;5003254;28;20470;-49
2023/01/09 02:34:40;;;;;;;34.27;32.07;;;;;;;5.11;100.00;99378.22;5003543;28;20436;-47
2023/01/09 02:37:17;;;;;;;32.53;30.70;;;;;;;5.15;100.00;99373.38;5003648;28;20434;-47
2023/01/09 02:39:55;;;;;;;32.23;30.53;;;;;;;5.18;100.00;99368.50;5014783;28;20787;-46
2023/01/09 02:42:25;;;;;;;32.50;30.70;;;;;;;5.21;100.00;99367.31;5022841;28;20453;-46
2023/01/09 02:44:53;;;;;;;33.20;31.30;;;;;;;5.25;100.00;99364.09;5021975;28;20464;-44
2023/01/09 02:47:44;;;;;;;33.53;31.40;;;;;;;5.27;100.00;99366.53;5022689;28;20432;-45
2023/01/09 02:50:15;;;;;;;33.00;31.00;;;;;;;5.28;100.00;99366.34;5023002;28;20455;-44
2023/01/09 02:53:09;;;;;;;33.10;31.20;;;;;;;5.31;100.00;99359.84;5021872;28;20471;-46
2023/01/09 02:55:56;;;;;;;32.23;30.43;;;;;;;5.33;100.00;99365.75;5023412;28;20796;-49
2023/01/09 02:58:40;;;;;;;33.93;31.97;;;;;;;5.35;100.00;99369.00;5022899;28;20433;-46
2023/01/09 03:01:19;;;;;;;33.03;31.13;;;;;;;5.36;100.00;99366.16;5012159;28;20429;-47
2023/01/09 03:03:59;;;;;;;32.23;30.53;;;;;;;5.39;100.00;99359.66;5011772;28;20924;-45
2023/01/09 03:06:34;;;;;;;33.27;31.47;;;;;;;5.40;100.00;99345.44;5012118;28;20472;-46
2023/01/09 03:09:08;;;;;;;33.50;31.80;;;;;;;5.42;100.00;99352.16;5012043;28;20543;-44
2023/01/09 03:11:40;;;;;;;33.30;31.50;;;;;;;5.44;100.00;99347.47;5011494;28;20464;-45
2023/01/09 03:14:12;;;;;;;33.70;31.90;;;;;;;5.44;100.00;99344.03;5011611;28;20437;-45
2023/01/09 03:16:39;;;;;;;33.17;31.37;;;;;;;5.45;100.00;99348.31;5012101;28;20421;-45
2023/01/09 03:19:13;;;;;;;33.53;31.57;;;;;;;5.47;100.00;99341.81;5012975;28;20448;-44
2023/01/09 03:21:42;;;;;;;33.23;31.33;;;;;;;5.49;100.00;99346.91;5015709;28;20457;-44
2023/01/09 03:24:10;;;;;;;33.87;31.50;;;;;;;5.51;100.00;99339.59;5015597;28;20433;-45
2023/01/09 03:26:38;;;;;;;33.80;31.80;;;;;;;5.54;100.00;99336.53;5015914;28;20479;-51
2023/01/09 03:29:06;;;;;;;33.57;31.87;;;;;;;5.55;100.00;99338.97;5016057;28;20862;-47
2023/01/09 03:31:34;;;;;;;33.97;32.17;;;;;;;5.58;100.00;99329.84;5015352;28;20429;-46
2023/01/09 03:34:01;;;;;;;32.87;31.20;;;;;;;5.58;100.00;99325.34;5015688;28;20475;-44
2023/01/09 03:36:31;;;;;;;34.60;32.10;;;;;;;5.62;100.00;99336.34;5015845;28;20506;-45
2023/01/09 03:38:58;;;;;;;34.00;32.30;;;;;;;5.62;100.00;99323.13;5003182;28;20446;-46
2023/01/09 03:41:26;;;;;;;33.27;31.53;;;;;;;5.64;100.00;99334.34;5015375;28;20432;-47
2023/01/09 03:43:54;;;;;;;34.13;32.33;;;;;;;5.66;100.00;99334.97;5015536;28;20796;-45
2023/01/09 03:46:21;;;;;;;34.13;32.23;;;;;;;5.67;100.00;99333.94;5015704;28;20476;-43
2023/01/09 03:48:49;;;;;;;34.90;32.87;;;;;;;5.68;100.00;99338.22;5015400;28;20469;-44
2023/01/09 03:51:16;;;;;;;34.37;32.53;;;;;;;5.69;100.00;99342.50;5015081;28;20433;-46
2023/01/09 03:53:45;;;;;;;33.50;31.60;;;;;;;5.70;100.00;99343.31;5015339;28;20483;-44
2023/01/09 03:56:13;;;;;;;33.83;31.83;;;;;;;5.73;100.00;99343.75;5015428;28;20428;-48
2023/01/09 03:58:41;;;;;;;33.10;31.40;;;;;;;5.76;100.00;99340.69;5015282;28;20926;-44
2023/01/09 04:01:11;;;;;;;33.20;31.40;;;;;;;5.77;100.00;99338.84;5015232;28;20433;-47
2023/01/09 04:03:40;;;;;;;34.00;31.90;;;;;;;5.78;100.00;99346.59;5014989;28;20812;-47
2023/01/09 04:06:07;;;;;;;33.07;31.17;;;;;;;5.79;100.00;99340.28;5014767;28;20509;-44
2023/01/09 04:08:35;;;;;;;32.80;31.10;;;;;;;5.81;100.00;99348.84;5015307;28;20433;-50
2023/01/09 04:11:04;;;;;;;33.23;31.23;;;;;;;5.83;100.00;99344.16;5015273;28;20874;-44
2023/01/09 04:13:32;;;;;;;33.50;31.47;;;;;;;5.86;100.00;99349.06;5014696;28;20468;-44
2023/01/09 04:15:59;;;;;;;33.93;31.97;;;;;;;5.86;100.00;99342.97;5014741;28;20429;-44
2023/01/09 04:18:27;;;;;;;33.33;31.17;;;;;;;5.88;100.00;99355.00;5014862;28;20472;-44
2023/01/09 04:20:54;;;;;;;33.17;31.27;;;;;;;5.88;100.00;99355.00;5015034;28;20440;-45
2023/01/09 04:23:22;;;;;;;34.17;32.30;;;;;;;5.88;100.00;99352.34;5014566;28;20461;-44
2023/01/09 04:25:50;;;;;;;34.77;32.63;;;;;;;5.88;100.00;99352.34;5014657;28;20527;-44
2023/01/09 04:28:19;;;;;;;33.37;31.47;;;;;;;5.90;100.00;99354.78;5014851;28;20944;-45
2023/01/09 04:30:47;;;;;;;35.83;33.20;;;;;;;5.88;100.00;99357.66;5013690;28;20836;-45
2023/01/09 04:33:14;;;;;;;33.63;31.63;;;;;;;5.88;100.00;99351.53;5014338;28;20460;-45
2023/01/09 04:35:42;;;;;;;34.43;32.30;;;;;;;5.88;100.00;99347.06;5014689;28;20462;-46
2023/01/09 04:38:10;;;;;;;33.17;31.27;;;;;;;5.89;100.00;99343.38;5009333;28;20786;-44
2023/01/09 04:40:37;;;;;;;34.27;32.17;;;;;;;5.91;100.00;99340.56;5009404;28;21046;-47
2023/01/09 04:43:05;;;;;;;36.20;33.87;;;;;;;5.91;100.00;99341.34;5013994;28;20471;-45
2023/01/09 04:45:34;;;;;;;34.07;31.80;;;;;;;5.91;100.00;99341.34;5013947;28;20986;-44
2023/01/09 04:48:01;;;;;;;33.83;31.77;;;;;;;5.91;100.00;99354.56;5014261;28;20479;-44
2023/01/09 04:50:29;;;;;;;34.13;32.03;;;;;;;5.92;100.00;99353.56;5014587;28;20829;-43
2023/01/09 04:52:58;;;;;;;34.57;32.17;;;;;;;5.95;100.00;99352.34;5012792;28;20461;-45
2023/01/09 04:55:25;;;;;;;34.97;32.70;;;;;;;5.96;100.00;99362.75;5012973;28;20428;-46
2023/01/09 04:57:53;;;;;;;34.73;32.70;;;;;;;5.94;100.00;99362.13;5013640;28;20442;-46
2023/01/09 05:00:21;;;;;;;35.03;32.83;;;;;;;5.96;100.00;99360.09;5013362;28;20453;-45
2023/01/09 05:02:50;;;;;;;34.87;32.77;;;;;;;5.97;100.00;99361.72;5013641;28;20856;-46
2023/01/09 05:05:17;;;;;;;34.17;32.17;;;;;;;5.96;100.00;99360.09;5014180;28;20437;-47
2023/01/09 05:07:45;;;;;;;34.70;32.60;;;;;;;5.98;100.00;99371.28;5014162;28;20440;-49
2023/01/09 05:10:13;;;;;;;35.83;33.43;;;;;;;5.98;100.00;99366.00;5014002;28;20457;-50
2023/01/09 05:12:40;;;;;;;35.27;33.03;;;;;;;5.99;100.00;99361.53;5013491;28;20464;-44
2023/01/09 05:15:09;;;;;;;36.23;34.13;;;;;;;6.00;100.00;99355.22;5013619;28;20436;-47
2023/01/09 05:17:36;;;;;;;35.37;33.10;;;;;;;6.01;100.00;99364.78;5014075;28;20433;-46
2023/01/09 05:20:06;;;;;;;35.53;33.43;;;;;;;5.98;100.00;99355.41;5013778;28;20461;-44
2023/01/09 05:22:34;;;;;;;34.13;32.33;;;;;;;5.97;100.00;99358.28;5013536;28;20519;-46
2023/01/09 05:25:02;;;;;;;34.47;32.40;;;;;;;5.99;100.00;99358.88;5013473;28;20771;-46
2023/01/09 05:27:29;;;;;;;35.37;32.93;;;;;;;5.96;100.00;99360.09;5013446;28;21017;-45
2023/01/09 05:29:58;;;;;;;33.93;32.17;;;;;;;5.97;100.00;99358.28;5013514;28;20962;-45
2023/01/09 05:32:25;;;;;;;34.57;32.77;;;;;;;5.98;100.00;99352.78;5012300;28;20469;-45
2023/01/09 05:34:53;;;;;;;34.43;32.10;;;;;;;5.95;100.00;99361.09;5013410;28;20849;-44
2023/01/09 05:37:22;;;;;;;33.50;31.70;;;;;;;5.96;100.00;99364.56;5010806;28;20429;-44
2023/01/09 05:39:50;;;;;;;33.13;31.43;;;;;;;5.95;100.00;99358.47;5005097;28;21032;-47
2023/01/09 05:42:17;;;;;;;32.57;30.60;;;;;;;5.95;100.00;99366.41;5013210;28;20469;-44
2023/01/09 05:44:45;;;;;;;32.40;30.80;;;;;;;5.94;100.00;99356.81;5013204;28;20460;-45
2023/01/09 05:47:13;;;;;;;32.60;30.90;;;;;;;5.93;100.00;99354.38;5013356;28;20483;-46
2023/01/09 05:49:40;;;;;;;31.50;29.90;;;;;;;5.90;100.00;99357.44;5013304;28;20456;-49
2023/01/09 05:52:08;;;;;;;31.97;30.27;;;;;;;5.88;100.00;99362.94;5012897;28;20545;-46
2023/01/09 05:54:37;;;;;;;31.90;30.30;;;;;;;5.88;100.00;99351.53;5012943;28;20461;-46
2023/01/09 05:57:05;;;;;;;30.73;29.17;;;;;;;5.88;100.00;99348.91;5013410;28;20432;-46
2023/01/09 05:59:32;;;;;;;30.83;29.40;;;;;;;5.85;100.00;99352.75;5013045;28;20456;-44
2023/01/09 06:02:00;;;;;;;30.73;29.20;;;;;;;5.87;100.00;99355.19;5012821;28;20464;-46
2023/01/09 06:04:29;;;;;;;30.60;29.10;;;;;;;5.85;100.00;99352.75;5012867;28;20429;-44
2023/01/09 06:06:56;;;;;;;31.20;29.60;;;;;;;5.86;100.00;99346.44;5012718;28;20465;-45
2023/01/09 06:09:24;;;;;;;31.30;29.60;;;;;;;5.85;100.00;99336.88;5013054;28;20515;-48
2023/01/09 06:11:53;;;;;;;31.03;29.43;;;;;;;5.87;100.00;99340.13;5012620;28;20461;-46
2023/01/09 06:14:21;;;;;;;31.70;30.10;;;;;;;5.85;100.00;99344.81;5012788;28;20428;-44
2023/01/09 06:16:49;;;;;;;31.27;29.77;;;;;;;5.86;100.00;99342.97;5012897;28;20776;-43
2023/01/09 06:19:16;;;;;;;31.03;29.53;;;;;;;5.85;100.00;99339.53;5012717;28;20453;-45
2023/01/09 06:21:44;;;;;;;31.77;29.97;;;;;;;5.84;100.00;99340.50;5011740;28;20460;-46
2023/01/09 06:24:12;;;;;;;31.37;29.77;;;;;;;5.84;100.00;99335.22;5012579;28;20468;-44
2023/01/09 06:26:40;;;;;;;31.27;29.67;;;;;;;5.84;100.00;99329.91;5012520;28;20480;-45
2023/01/09 06:29:08;;;;;;;30.33;28.73;;;;;;;5.84;100.00;99342.31;5012606;28;20449;-44
2023/01/09 06:31:36;;;;;;;30.37;28.87;;;;;;;5.82;100.00;99337.25;5012199;28;20457;-45
2023/01/09 06:34:04;;;;;;;31.27;29.67;;;;;;;5.83;100.00;99345.97;5012236;28;20439;-46
2023/01/09 06:36:31;;;;;;;31.63;30.10;;;;;;;5.82;100.00;99339.91;5012526;28;20433;-44
2023/01/09 06:38:59;;;;;;;30.90;29.40;;;;;;;5.80;100.00;99338.44;5002316;28;20577;-44
2023/01/09 06:41:27;;;;;;;31.80;30.10;;;;;;;5.77;100.00;99337.00;5011924;28;20444;-44
2023/01/09 06:43:54;;;;;;;31.17;29.53;;;;;;;5.75;100.00;99344.34;5012221;28;20525;-46
2023/01/09 06:46:23;;;;;;;31.97;30.17;;;;;;;5.73;100.00;99341.09;5012247;28;20437;-44
2023/01/09 06:48:51;;;;;;;31.80;30.10;;;;;;;5.71;100.00;99344.94;5012012;28;20472;-44
2023/01/09 06:51:19;;;;;;;30.63;29.13;;;;;;;5.69;100.00;99344.31;5012037;28;20441;-44
2023/01/09 06:53:46;;;;;;;31.87;30.00;;;;;;;5.66;100.00;99337.59;5011921;28;20433;-45
2023/01/09 06:56:14;;;;;;;31.80;29.97;;;;;;;5.65;100.00;99341.25;5012025;28;20433;-45
2023/01/09 06:58:41;;;;;;;32.83;30.93;;;;;;;5.62;100.00;99341.66;5012064;28;20429;-46
2023/01/09 07:01:09;;;;;;;31.20;29.70;;;;;;;5.61;100.00;99355.09;5012008;28;20811;-44
2023/01/09 07:03:39;;;;;;;30.90;29.20;;;;;;;5.57;100.00;99350.19;5011599;28;20523;-44
2023/01/09 07:06:07;;;;;;;32.07;30.47;;;;;;;5.55;100.00;99351.41;5012084;28;20511;-44
2023/01/09 07:08:34;;;;;;;31.40;29.70;;;;;;;5.52;100.00;99355.28;5012003;28;20563;-44
2023/01/09 07:11:02;;;;;;;31.43;29.90;;;;;;;5.50;100.00;99359.09;5011955;28;20448;-44
2023/01/09 07:13:30;;;;;;;32.33;30.53;;;;;;;5.48;100.00;99358.47;5011419;28;20994;-44
2023/01/09 07:15:58;;;;;;;32.20;30.43;;;;;;;5.47;100.00;99362.94;5011773;28;20429;-44
2023/01/09 07:18:25;;;;;;;32.70;30.97;;;;;;;5.47;100.00;99367.41;5012189;28;20456;-43
2023/01/09 07:20:54;;;;;;;31.63;29.70;;;;;;;5.47;100.00;99380.63;5012139;28;20443;-44
2023/01/09 07:23:22;;;;;;;32.73;31.13;;;;;;;5.44;100.00;99370.47;5011732;28;20461;-44
2023/01/09 07:25:51;;;;;;;32.00;30.30;;;;;;;5.44;100.00;99375.75;5011796;28;20440;-44
2023/01/09 07:28:19;;;;;;;32.50;30.90;;;;;;;5.41;100.00;99387.53;5011700;28;20477;-44
2023/01/09 07:30:46;;;;;;;32.43;30.70;;;;;;;5.40;100.00;99385.91;5012189;28;20455;-46
2023/01/09 07:33:14;;;;;;;32.07;30.33;;;;;;;5.39;100.00;99386.09;5011495;28;20830;-44
2023/01/09 07:35:43;;;;;;;31.57;30.00;;;;;;;5.37;100.00;99386.31;5011684;28;20487;-45
2023/01/09 07:38:12;;;;;;;31.60;30.00;;;;;;;5.33;100.00;99386.88;5006058;28;20433;-43
2023/01/09 07:40:40;;;;;;;30.73;29.23;;;;;;;5.33;100.00;99397.47;5007017;28;20449;-45
2023/01/09 07:43:07;;;;;;;30.97;29.37;;;;;;;5.31;100.00;99394.19;5011302;28;20522;-44
2023/01/09 07:45:35;;;;;;;32.13;30.03;;;;;;;5.30;100.00;99397.84;5011610;28;20425;-45
2023/01/09 07:48:03;;;;;;;32.00;30.20;;;;;;;5.29;100.00;99396.19;5011797;28;20477;-44
2023/01/09 07:50:31;;;;;;;32.90;30.93;;;;;;;5.28;100.00;99403.34;5011793;28;20449;-51
2023/01/09 07:52:58;;;;;;;33.27;31.43;;;;;;;5.28;100.00;99406.00;5011248;28;20496;-45
2023/01/09 07:55:27;;;;;;;33.60;32.00;;;;;;;5.27;100.00;99411.44;5011239;28;20487;-45
2023/01/09 07:57:55;;;;;;;32.27;30.43;;;;;;;5.25;100.00;99411.66;5011740;28;20433;-48
2023/01/09 08:00:23;;;;;;;32.60;30.70;;;;;;;5.26;100.00;99412.44;5011517;28;20457;-49
2023/01/09 08:02:51;;;;;;;34.50;32.60;;;;;;;5.26;100.00;99413.28;5011187;28;20811;-44
2023/01/09 08:05:19;;;;;;;34.37;32.47;;;;;;;5.26;100.00;99415.09;5011365;28;20532;-47
2023/01/09 08:07:49;;;;;;;33.47;31.47;;;;;;;5.26;100.00;99425.66;5014589;28;20477;-46
2023/01/09 08:10:18;;;;;;;33.37;31.47;;;;;;;5.25;100.00;99429.34;5015043;28;20457;-45
2023/01/09 08:12:48;;;;;;;32.47;30.57;;;;;;;5.26;100.00;99428.31;5014822;28;20460;-48
2023/01/09 08:15:16;;;;;;;33.17;31.20;;;;;;;5.27;100.00;99436.06;5015042;28;20429;-48
2023/01/09 08:17:45;;;;;;;31.30;29.60;;;;;;;5.27;100.00;99443.16;5015064;28;20425;-50
2023/01/09 08:20:14;;;;;;;34.37;32.10;;;;;;;5.27;100.00;99449.28;5014859;28;20461;-46
2023/01/09 08:22:43;;;;;;;33.07;31.27;;;;;;;5.29;100.00;99439.31;5014501;28;20460;-46
2023/01/09 08:25:11;;;;;;;32.60;30.90;;;;;;;5.29;100.00;99446.44;5014854;28;20916;-45
2023/01/09 08:27:39;;;;;;;32.43;30.57;;;;;;;5.31;100.00;99449.72;5014930;28;20468;-44
2023/01/09 08:30:09;;;;;;;30.67;28.93;;;;;;;5.35;100.00;99456.22;5014834;28;20455;-47
2023/01/09 08:32:37;;;;;;;41.47;32.50;;;;;;;5.38;100.00;99455.84;5014292;28;20995;-48
2023/01/09 08:35:06;;;;;;;30.40;28.70;;;;;;;5.42;100.00;99471.13;5014473;28;20440;-49
2023/01/09 08:37:34;;;;;;;31.23;29.33;;;;;;;5.44;100.00;99466.47;5012242;28;20946;-47
2023/01/09 08:40:01;;;;;;;30.90;29.30;;;;;;;5.48;100.00;99469.53;5006553;28;20461;-44
2023/01/09 08:48:01;;;;;;;30.67;28.97;;;;;;;5.61;100.00;99472.25;5014519;28;20472;-46
2023/01/09 08:50:28;;;;;;;30.23;28.53;;;;;;;5.65;100.00;99467.38;5014468;28;20453;-44
2023/01/09 08:52:56;;;;;;;31.33;29.50;;;;;;;5.69;100.00;99477.38;5014055;28;20456;-44
2023/01/09 08:55:24;;;;;;;30.90;29.20;;;;;;;5.76;100.00;99480.06;5014051;28;20930;-45
2023/01/09 08:57:53;;;;;;;29.60;28.00;;;;;;;5.77;100.00;99479.03;5014195;28;20440;-47
2023/01/09 09:00:24;;;;;;;30.27;28.67;;;;;;;5.78;100.00;99478.84;5014365;28;20456;-46
2023/01/09 09:02:52;;;;;;;31.00;29.23;;;;;;;5.80;100.00;99489.22;5014081;28;20449;-44
2023/01/09 09:05:21;;;;;;;30.97;29.37;;;;;;;5.77;100.00;99484.31;5014095;28;20437;-44
2023/01/09 09:07:49;;;;;;;31.03;29.43;;;;;;;5.79;100.00;99491.06;5014059;28;20477;-47
2023/01/09 09:10:17;;;;;;;31.53;29.53;;;;;;;5.86;100.00;99491.94;5013831;28;20453;-45
2023/01/09 09:12:48;;;;;;;32.53;30.47;;;;;;;5.90;100.00;99487.91;5013579;28;20472;-48
2023/01/09 09:15:22;;;;;;;34.47;32.43;;;;;;;5.96;100.00;99491.59;5013887;28;20433;-47
2023/01/09 09:17:53;;;;;;;31.90;30.20;;;;;;;6.02;100.00;99494.25;5013844;28;20432;-45
2023/01/09 09:20:22;;;;;;;32.37;30.67;;;;;;;6.11;100.00;99500.19;5013799;28;20456;-47
2023/01/09 09:22:49;;;;;;;31.87;30.27;;;;;;;6.18;100.00;99495.75;5013293;28;20461;-48
2023/01/09 09:25:18;;;;;;;34.13;32.03;;;;;;;6.25;100.00;99493.94;5013887;28;20484;-44
2023/01/09 09:27:46;;;;;;;33.97;32.10;;;;;;;6.29;100.00;99489.88;5013879;28;20441;-44
2023/01/09 09:30:16;;;;;;;33.37;31.30;;;;;;;6.32;100.00;99486.84;5013642;28;20457;-48
2023/01/09 09:32:44;;;;;;;32.70;30.90;;;;;;;6.39;100.00;99490.28;5013402;28;20527;-46
2023/01/09 09:35:13;;;;;;;32.43;30.63;;;;;;;6.39;100.00;99490.28;5013347;28;20456;-46
2023/01/09 09:37:41;;;;;;;32.97;31.23;;;;;;;6.39;100.00;99494.81;5011430;28;20461;-45
2023/01/09 09:40:16;;;;;;;32.70;31.10;;;;;;;6.42;100.00;99500.47;5005122;28;20456;-44
2023/01/09 09:45:59;;;;;;;33.60;31.70;;;;;;;6.47;100.00;99511.31;5013019;28;20458;-50
2023/01/09 09:48:35;;;;;;;34.13;32.03;;;;;;;6.48;100.00;99512.94;5013230;28;20473;-45
2023/01/09 09:51:46;;;;;;;33.60;31.60;;;;;;;6.45;100.00;99508.03;5013324;28;20803;-44
2023/01/09 09:54:18;;;;;;;33.27;31.50;;;;;;;6.48;100.00;99512.13;4984038;28;20559;-46
2023/01/09 09:56:50;;;;;;;35.47;33.13;;;;;;;6.47;100.00;99515.78;5013187;28;20923;-46
2023/01/09 09:59:21;;;;;;;35.73;33.33;;;;;;;6.48;100.00;99510.28;5013248;28;20449;-48
2023/01/09 10:01:55;;;;;;;34.20;32.20;;;;;;;6.52;100.00;99516.81;5012259;28;20471;-46
2023/01/09 10:04:25;;;;;;;33.57;31.63;;;;;;;6.58;100.00;99515.19;5012876;28;20433;-45
2023/01/09 10:06:57;;;;;;;35.63;32.97;;;;;;;6.61;100.00;99512.16;5013337;28;20437;-44
2023/01/09 10:09:36;;;;;;;33.77;31.63;;;;;;;6.62;100.00;99522.56;5012921;28;20485;-47
2023/01/09 10:12:17;;;;;;;35.30;33.20;;;;;;;6.66;100.00;99521.13;5012742;28;20621;-46
2023/01/09 10:14:45;;;;;;;34.70;32.63;;;;;;;6.71;100.00;99517.88;5012744;28;20433;-45
2023/01/09 10:17:26;;;;;;;35.20;33.00;;;;;;;6.71;100.00;99519.72;5012789;28;20448;-44
2023/01/09 10:20:39;;;;;;;34.27;32.07;;;;;;;6.75;100.00;99529.69;5012919;28;20445;-44
2023/01/09 10:23:23;;;;;;;35.00;32.80;;;;;;;6.80;100.00;99532.59;4987900;28;20460;-45
2023/01/09 10:25:56;;;;;;;35.43;33.30;;;;;;;6.83;100.00;99534.81;5012801;28;20451;-44
2023/01/09 10:28:46;;;;;;;36.90;34.50;;;;;;;6.79;100.00;99532.75;5012169;28;20433;-48
2023/01/09 10:31:23;;;;;;;35.30;33.20;;;;;;;6.81;100.00;99528.09;5012807;28;20429;-47
2023/01/09 10:34:01;;;;;;;37.10;34.60;;;;;;;6.84;100.00;99539.09;5012654;28;20425;-46
2023/01/09 10:36:50;;;;;;;38.20;35.80;;;;;;;6.86;100.00;99538.91;5012721;28;20433;-44
2023/01/09 10:39:24;;;;;;;38.10;35.80;;;;;;;6.83;100.00;99545.44;4993521;28;20485;-45
2023/01/09 10:41:58;;;;;;;37.03;34.70;;;;;;;6.84;100.00;99549.69;4991683;28;20884;-45
2023/01/09 10:44:34;;;;;;;37.20;34.83;;;;;;;6.87;100.00;99553.78;4992796;28;20448;-46
2023/01/09 10:47:05;;;;;;;37.20;35.00;;;;;;;6.81;100.00;99539.50;4993142;28;20441;-47
2023/01/09 10:49:34;;;;;;;38.43;35.77;;;;;;;6.77;100.00;99551.53;4992638;28;20484;-44
2023/01/09 10:52:12;;;;;;;37.30;34.97;;;;;;;6.73;100.00;99552.94;4992319;28;20466;-47
2023/01/09 10:54:50;;;;;;;39.00;36.43;;;;;;;6.72;100.00;99558.44;4992444;28;20863;-47
2023/01/09 10:57:30;;;;;;;38.63;36.17;;;;;;;6.71;100.00;99557.63;4992768;28;20488;-45
2023/01/09 10:59:57;;;;;;;40.17;37.57;;;;;;;6.68;100.00;99558.84;4992628;28;20445;-47
2023/01/09 11:02:29;;;;;;;38.00;35.73;;;;;;;6.69;100.00;99557.00;4992252;28;20476;-44
2023/01/09 11:04:56;;;;;;;38.30;35.57;;;;;;;6.69;100.00;99562.28;4992215;28;20430;-44
2023/01/09 11:07:29;;;;;;;37.60;35.10;;;;;;;6.69;100.00;99559.63;4992654;28;20441;-44
2023/01/09 11:10:00;;;;;;;41.23;38.10;;;;;;;6.61;100.00;99570.44;4992547;28;20482;-46
2023/01/09 11:12:30;;;;;;;40.30;37.20;;;;;;;6.65;100.00;99580.44;4992162;28;20545;-44
2023/01/09 11:15:27;;;;;;;37.90;35.43;;;;;;;6.66;100.00;99574.09;4992628;28;20442;-47
2023/01/09 11:18:16;;;;;;;37.70;35.20;;;;;;;6.65;100.00;99576.97;5001051;28;20444;-46
2023/01/09 11:20:44;;;;;;;38.87;36.13;;;;;;;6.65;100.00;99584.91;5012078;28;20495;-46
2023/01/09 11:23:30;;;;;;;38.57;36.27;;;;;;;6.65;100.00;99582.28;5011583;28;20464;-45
2023/01/09 11:26:01;;;;;;;36.77;34.20;;;;;;;6.60;100.00;99585.50;5012235;28;20433;-46
2023/01/09 11:28:29;;;;;;;39.73;36.50;;;;;;;6.43;100.00;99586.03;5011830;28;20440;-48
2023/01/09 11:30:59;;;;;;;38.13;35.30;;;;;;;6.33;100.00;99588.25;5011912;28;20477;-45
2023/01/09 11:33:29;;;;;;;38.50;35.80;;;;;;;6.25;100.00;99583.13;5011332;28;21060;-48
2023/01/09 11:36:04;;;;;;;38.53;35.50;;;;;;;6.15;100.00;99590.63;5011611;28;20471;-44
2023/01/09 11:38:45;;;;;;;36.97;34.33;;;;;;;6.06;100.00;99596.06;5003485;28;20434;-43
2023/01/09 11:41:18;;;;;;;37.73;34.93;;;;;;;6.03;100.00;99600.94;5014539;28;20424;-43
2023/01/09 11:43:48;;;;;;;37.83;34.60;;;;;;;5.97;100.00;99593.78;5015565;28;20452;-43
2023/01/09 11:46:34;;;;;;;38.30;35.27;;;;;;;5.88;100.00;99598.41;5015961;28;20426;-43
2023/01/09 11:49:04;;;;;;;35.73;33.10;;;;;;;5.86;100.00;99594.31;5015480;28;20897;-43